Industry, Maine
Current Conditions -  °F | °C
As of 8:15 AM on Wednesday 22 Oct 2014 (Local Time) from KWVL Reporting Station
Overcast Overcast  
Wind Chill: 39°   Ceiling: 2300
Heat Index: 45°   Visibility: 10mi
Dew Point: 37°   Wind: 12mph
Humidity: 76%   Direction: 10°N
Pressure: 30.17"   Gusts: 20mph
Location:  44.6583°N, 70.1012°W
Report Text: KWVL 221215Z 01010G17KT 10SM FEW010 OVC023 07/03 A3017 RMK AO1 P0001
Loading
Personal Weather Stations






























Interactive Weather Map New forecast layout! Learn more

10-Day Weather Forecast

Advertisements
Track Severe Weather on mobile